Weather at Gradsko Airfield [CLOSED]

Public forecast

Using degrees Celsius for public forecast. Weather courtesy of forecast.io.

Closest aviation weather report (METAR) to Gradsko Airfield

Report is more than 2 hours old.

Closest report is Skopje International Airport, 28.4 nm (52.6 km) NNW.

2024/06/24 21:20 (retrieved 4 hours ago)

LWSK 242120Z VRB02KT 9999 FEW100 21/18 Q1015 NOSIG

Closest aviation forecast (TAF) to Gradsko Airfield

Closest forecast is Skopje International Airport, 28.4 nm (52.6 km) NNW.

2024/06/24 21:36 (retrieved 4 hours ago)

TAF LWSK 242030Z 2421/2521 02006KT 9999 SCT050 TEMPO 2514/2521 VRB15G25KT 5000 TSRA FEW033CB BKN040